sensor_id;sensor_type;location;lat;lon;timestamp;P1;P2;P0
49686;PMS5003;36064;38.180;-122.272;2022-12-07T00:00:00;0.8;0.8;
49686;PMS5003;36064;38.180;-122.272;2022-12-07T00:05:00;1.2;0.4;
49686;PMS5003;36064;38.180;-122.272;2022-12-07T00:10:00;1.2;0.4;
49686;PMS5003;36064;38.180;-122.272;2022-12-07T00:15:00;0.4;0.4;
49686;PMS5003;36064;38.180;-122.272;2022-12-07T00:20:00;0.4;0.4;
49686;PMS5003;36064;38.180;-122.272;2022-12-07T00:25:00;0.4;0.4;
49686;PMS5003;36064;38.180;-122.272;2022-12-07T00:30:00;0.0;0.4;
49686;PMS5003;36064;38.180;-122.272;2022-12-07T00:35:00;0.4;0.4;
49686;PMS5003;36064;38.180;-122.272;2022-12-07T00:40:04;0.0;0.0;
49686;PMS5003;36064;38.180;-122.272;2022-12-07T00:45:00;0.8;0.4;
49686;PMS5003;36064;38.180;-122.272;2022-12-07T00:50:00;1.0;0.8;
49686;PMS5003;36064;38.180;-122.272;2022-12-07T00:55:00;0.8;0.8;
49686;PMS5003;36064;38.180;-122.272;2022-12-07T01:00:00;2.98;2.59;
49686;PMS5003;36064;38.180;-122.272;2022-12-07T01:05:00;0.8;0.8;
49686;PMS5003;36064;38.180;-122.272;2022-12-07T01:10:00;0.8;0.8;
49686;PMS5003;36064;38.180;-122.272;2022-12-07T01:15:00;0.6;0.6;
49686;PMS5003;36064;38.180;-122.272;2022-12-07T01:20:01;0.6;0.6;
49686;PMS5003;36064;38.180;-122.272;2022-12-07T01:25:00;0.6;0.6;
49686;PMS5003;36064;38.180;-122.272;2022-12-07T01:30:01;1.2;1.2;
49686;PMS5003;36064;38.180;-122.272;2022-12-07T01:35:00;0.83;0.83;
49686;PMS5003;36064;38.180;-122.272;2022-12-07T01:40:00;1.18;0.82;
49686;PMS5003;36064;38.180;-122.272;2022-12-07T01:50:00;1.2;1.2;
49686;PMS5003;36064;38.180;-122.272;2022-12-07T01:55:02;2.4;2.0;
49686;PMS5003;36064;38.180;-122.272;2022-12-07T02:00:01;2.6;2.0;
49686;PMS5003;36064;38.180;-122.272;2022-12-07T02:05:01;3.2;1.8;
49686;PMS5003;36064;38.180;-122.272;2022-12-07T02:15:00;2.2;2.0;
49686;PMS5003;36064;38.180;-122.272;2022-12-07T02:20:06;1.6;1.6;
49686;PMS5003;36064;38.180;-122.272;2022-12-07T02:25:03;4.2;3.2;
49686;PMS5003;36064;38.180;-122.272;2022-12-07T02:30:00;2.4;2.4;
49686;PMS5003;36064;38.180;-122.272;2022-12-07T02:35:02;1.0;1.0;
49686;PMS5003;36064;38.180;-122.272;2022-12-07T02:40:01;1.6;1.2;
49686;PMS5003;36064;38.180;-122.272;2022-12-07T02:45:00;1.4;1.4;
49686;PMS5003;36064;38.180;-122.272;2022-12-07T02:50:02;2.0;1.4;
49686;PMS5003;36064;38.180;-122.272;2022-12-07T02:55:00;2.2;3.6;
49686;PMS5003;36064;38.180;-122.272;2022-12-07T03:00:02;6.8;6.2;
49686;PMS5003;36064;38.180;-122.272;2022-12-07T03:05:02;9.0;7.0;
49686;PMS5003;36064;38.180;-122.272;2022-12-07T03:10:03;9.0;6.6;
49686;PMS5003;36064;38.180;-122.272;2022-12-07T03:15:02;5.4;5.0;
49686;PMS5003;36064;38.180;-122.272;2022-12-07T03:20:02;7.4;7.4;
49686;PMS5003;36064;38.180;-122.272;2022-12-07T03:25:00;13.6;12.8;
49686;PMS5003;36064;38.180;-122.272;2022-12-07T03:30:02;18.6;17.6;
49686;PMS5003;36064;38.180;-122.272;2022-12-07T03:35:01;16.0;15.6;
49686;PMS5003;36064;38.180;-122.272;2022-12-07T03:40:04;16.6;15.2;
49686;PMS5003;36064;38.180;-122.272;2022-12-07T03:45:01;21.6;20.0;
49686;PMS5003;36064;38.180;-122.272;2022-12-07T03:50:02;22.4;21.6;
49686;PMS5003;36064;38.180;-122.272;2022-12-07T03:55:02;21.8;18.8;
49686;PMS5003;36064;38.180;-122.272;2022-12-07T04:00:00;19.2;17.0;
49686;PMS5003;36064;38.180;-122.272;2022-12-07T04:05:00;17.2;15.6;
49686;PMS5003;36064;38.180;-122.272;2022-12-07T04:10:00;18.0;16.8;
49686;PMS5003;36064;38.180;-122.272;2022-12-07T04:15:00;14.6;14.2;
49686;PMS5003;36064;38.180;-122.272;2022-12-07T04:20:00;18.4;17.2;
49686;PMS5003;36064;38.180;-122.272;2022-12-07T04:25:00;16.2;15.4;
49686;PMS5003;36064;38.180;-122.272;2022-12-07T04:30:00;15.0;14.2;
49686;PMS5003;36064;38.180;-122.272;2022-12-07T04:35:00;14.0;13.4;
49686;PMS5003;36064;38.180;-122.272;2022-12-07T04:40:01;13.2;13.0;
49686;PMS5003;36064;38.180;-122.272;2022-12-07T04:45:00;12.0;10.4;
49686;PMS5003;36064;38.180;-122.272;2022-12-07T04:50:00;12.6;12.0;
49686;PMS5003;36064;38.180;-122.272;2022-12-07T04:55:00;14.8;12.2;
49686;PMS5003;36064;38.180;-122.272;2022-12-07T05:00:00;12.2;11.6;
49686;PMS5003;36064;38.180;-122.272;2022-12-07T05:05:00;14.2;12.4;
49686;PMS5003;36064;38.180;-122.272;2022-12-07T05:10:00;14.0;13.0;
49686;PMS5003;36064;38.180;-122.272;2022-12-07T05:15:01;12.83;12.42;
49686;PMS5003;36064;38.180;-122.272;2022-12-07T05:20:00;19.4;18.2;
49686;PMS5003;36064;38.180;-122.272;2022-12-07T05:25:00;16.17;15.97;
49686;PMS5003;36064;38.180;-122.272;2022-12-07T05:30:00;15.4;15.0;
49686;PMS5003;36064;38.180;-122.272;2022-12-07T05:35:00;19.0;18.6;
49686;PMS5003;36064;38.180;-122.272;2022-12-07T05:40:00;19.01;18.6;
49686;PMS5003;36064;38.180;-122.272;2022-12-07T05:45:00;17.4;16.4;
49686;PMS5003;36064;38.180;-122.272;2022-12-07T05:50:00;17.2;16.4;
49686;PMS5003;36064;38.180;-122.272;2022-12-07T05:55:00;12.8;12.4;
49686;PMS5003;36064;38.180;-122.272;2022-12-07T06:00:01;17.6;14.6;
49686;PMS5003;36064;38.180;-122.272;2022-12-07T06:05:01;17.4;16.0;
49686;PMS5003;36064;38.180;-122.272;2022-12-07T06:10:00;20.2;19.6;
49686;PMS5003;36064;38.180;-122.272;2022-12-07T06:15:00;18.2;18.6;
49686;PMS5003;36064;38.180;-122.272;2022-12-07T06:20:00;19.2;17.4;
49686;PMS5003;36064;38.180;-122.272;2022-12-07T06:25:00;17.4;15.01;
49686;PMS5003;36064;38.180;-122.272;2022-12-07T06:30:00;17.6;15.6;
49686;PMS5003;36064;38.180;-122.272;2022-12-07T06:35:00;16.8;15.8;
49686;PMS5003;36064;38.180;-122.272;2022-12-07T06:40:00;17.8;17.0;
49686;PMS5003;36064;38.180;-122.272;2022-12-07T06:45:02;26.6;25.2;
49686;PMS5003;36064;38.180;-122.272;2022-12-07T06:50:00;20.8;23.0;
49686;PMS5003;36064;38.180;-122.272;2022-12-07T06:55:00;21.6;19.6;
49686;PMS5003;36064;38.180;-122.272;2022-12-07T07:00:01;20.2;18.0;
49686;PMS5003;36064;38.180;-122.272;2022-12-07T07:05:00;19.0;17.8;
49686;PMS5003;36064;38.180;-122.272;2022-12-07T07:10:00;13.6;13.4;
49686;PMS5003;36064;38.180;-122.272;2022-12-07T07:15:00;11.2;10.6;
49686;PMS5003;36064;38.180;-122.272;2022-12-07T07:20:00;12.6;12.8;
49686;PMS5003;36064;38.180;-122.272;2022-12-07T07:25:00;12.2;12.0;
49686;PMS5003;36064;38.180;-122.272;2022-12-07T07:30:00;14.6;13.0;
49686;PMS5003;36064;38.180;-122.272;2022-12-07T07:35:00;11.0;10.4;
49686;PMS5003;36064;38.180;-122.272;2022-12-07T07:40:00;13.4;11.8;
49686;PMS5003;36064;38.180;-122.272;2022-12-07T07:45:00;14.0;12.8;
49686;PMS5003;36064;38.180;-122.272;2022-12-07T07:50:00;18.0;17.4;
49686;PMS5003;36064;38.180;-122.272;2022-12-07T07:55:00;13.6;13.0;
49686;PMS5003;36064;38.180;-122.272;2022-12-07T08:00:01;13.4;12.2;
49686;PMS5003;36064;38.180;-122.272;2022-12-07T08:05:00;13.2;11.2;
49686;PMS5003;36064;38.180;-122.272;2022-12-07T08:10:00;14.4;13.6;
49686;PMS5003;36064;38.180;-122.272;2022-12-07T08:15:01;13.0;11.8;
49686;PMS5003;36064;38.180;-122.272;2022-12-07T08:20:00;16.8;14.8;
49686;PMS5003;36064;38.180;-122.272;2022-12-07T08:25:00;15.2;14.4;
49686;PMS5003;36064;38.180;-122.272;2022-12-07T08:30:00;15.2;14.2;
49686;PMS5003;36064;38.180;-122.272;2022-12-07T08:35:00;17.2;15.2;
49686;PMS5003;36064;38.180;-122.272;2022-12-07T08:40:00;14.4;12.6;
49686;PMS5003;36064;38.180;-122.272;2022-12-07T08:45:00;11.6;10.4;
49686;PMS5003;36064;38.180;-122.272;2022-12-07T08:50:00;8.4;7.8;
49686;PMS5003;36064;38.180;-122.272;2022-12-07T08:55:00;7.0;6.81;
49686;PMS5003;36064;38.180;-122.272;2022-12-07T09:05:00;5.6;4.8;
49686;PMS5003;36064;38.180;-122.272;2022-12-07T09:10:00;4.8;5.2;
49686;PMS5003;36064;38.180;-122.272;2022-12-07T09:15:00;5.82;4.8;
49686;PMS5003;36064;38.180;-122.272;2022-12-07T09:20:00;7.6;6.8;
49686;PMS5003;36064;38.180;-122.272;2022-12-07T09:25:01;7.6;6.8;
49686;PMS5003;36064;38.180;-122.272;2022-12-07T09:30:01;4.6;4.6;
49686;PMS5003;36064;38.180;-122.272;2022-12-07T09:35:00;6.6;4.8;
49686;PMS5003;36064;38.180;-122.272;2022-12-07T09:40:00;7.0;6.0;
49686;PMS5003;36064;38.180;-122.272;2022-12-07T09:45:00;5.41;5.6;
49686;PMS5003;36064;38.180;-122.272;2022-12-07T09:50:03;6.41;5.21;
49686;PMS5003;36064;38.180;-122.272;2022-12-07T09:55:00;5.6;5.2;
49686;PMS5003;36064;38.180;-122.272;2022-12-07T10:00:02;5.61;5.01;
49686;PMS5003;36064;38.180;-122.272;2022-12-07T10:05:00;5.6;5.6;
49686;PMS5003;36064;38.180;-122.272;2022-12-07T10:10:02;7.8;6.6;
49686;PMS5003;36064;38.180;-122.272;2022-12-07T10:15:01;12.2;10.6;
49686;PMS5003;36064;38.180;-122.272;2022-12-07T10:25:07;13.8;12.0;
49686;PMS5003;36064;38.180;-122.272;2022-12-07T10:30:01;14.4;13.2;
49686;PMS5003;36064;38.180;-122.272;2022-12-07T10:40:00;9.8;8.6;
49686;PMS5003;36064;38.180;-122.272;2022-12-07T10:45:07;11.6;10.4;
49686;PMS5003;36064;38.180;-122.272;2022-12-07T10:55:05;10.4;9.6;
49686;PMS5003;36064;38.180;-122.272;2022-12-07T11:00:03;7.8;7.2;
49686;PMS5003;36064;38.180;-122.272;2022-12-07T11:05:04;7.8;6.6;
49686;PMS5003;36064;38.180;-122.272;2022-12-07T11:10:02;10.2;9.2;
49686;PMS5003;36064;38.180;-122.272;2022-12-07T11:15:01;10.4;9.0;
49686;PMS5003;36064;38.180;-122.272;2022-12-07T11:20:03;6.0;5.6;
49686;PMS5003;36064;38.180;-122.272;2022-12-07T11:25:02;5.0;4.2;
49686;PMS5003;36064;38.180;-122.272;2022-12-07T11:30:09;8.8;8.4;
49686;PMS5003;36064;38.180;-122.272;2022-12-07T11:35:03;7.8;7.0;
49686;PMS5003;36064;38.180;-122.272;2022-12-07T11:40:02;8.4;6.8;
49686;PMS5003;36064;38.180;-122.272;2022-12-07T11:45:02;6.8;5.6;
49686;PMS5003;36064;38.180;-122.272;2022-12-07T11:50:03;5.8;5.8;
49686;PMS5003;36064;38.180;-122.272;2022-12-07T11:55:00;6.8;6.0;
49686;PMS5003;36064;38.180;-122.272;2022-12-07T12:00:03;6.8;6.0;
49686;PMS5003;36064;38.180;-122.272;2022-12-07T12:05:02;3.6;3.6;
49686;PMS5003;36064;38.180;-122.272;2022-12-07T12:10:02;3.6;3.2;
49686;PMS5003;36064;38.180;-122.272;2022-12-07T12:15:04;5.6;4.4;
49686;PMS5003;36064;38.180;-122.272;2022-12-07T12:20:01;4.4;3.8;
49686;PMS5003;36064;38.180;-122.272;2022-12-07T12:25:02;5.8;5.4;
49686;PMS5003;36064;38.180;-122.272;2022-12-07T12:30:02;4.4;6.0;
49686;PMS5003;36064;38.180;-122.272;2022-12-07T12:35:02;10.6;9.8;
49686;PMS5003;36064;38.180;-122.272;2022-12-07T12:45:03;10.6;9.0;
49686;PMS5003;36064;38.180;-122.272;2022-12-07T12:55:02;6.0;6.0;
49686;PMS5003;36064;38.180;-122.272;2022-12-07T13:00:01;7.0;6.0;
49686;PMS5003;36064;38.180;-122.272;2022-12-07T13:05:00;7.0;6.0;
49686;PMS5003;36064;38.180;-122.272;2022-12-07T13:10:00;7.6;8.0;
49686;PMS5003;36064;38.180;-122.272;2022-12-07T13:15:00;10.4;9.4;
49686;PMS5003;36064;38.180;-122.272;2022-12-07T13:20:01;30.01;22.41;
49686;PMS5003;36064;38.180;-122.272;2022-12-07T13:25:03;30.8;24.8;
49686;PMS5003;36064;38.180;-122.272;2022-12-07T13:30:00;34.8;28.82;
49686;PMS5003;36064;38.180;-122.272;2022-12-07T13:35:00;22.24;18.78;
49686;PMS5003;36064;38.180;-122.272;2022-12-07T13:40:01;14.2;11.8;
49686;PMS5003;36064;38.180;-122.272;2022-12-07T13:45:13;21.2;16.8;
49686;PMS5003;36064;38.180;-122.272;2022-12-07T13:50:00;20.8;17.6;
49686;PMS5003;36064;38.180;-122.272;2022-12-07T13:55:01;14.8;13.6;
49686;PMS5003;36064;38.180;-122.272;2022-12-07T14:00:01;13.61;12.0;
49686;PMS5003;36064;38.180;-122.272;2022-12-07T14:05:09;14.8;12.8;
49686;PMS5003;36064;38.180;-122.272;2022-12-07T14:10:01;9.6;8.8;
49686;PMS5003;36064;38.180;-122.272;2022-12-07T14:15:00;9.2;8.6;
49686;PMS5003;36064;38.180;-122.272;2022-12-07T14:20:01;10.4;10.4;
49686;PMS5003;36064;38.180;-122.272;2022-12-07T14:30:01;16.0;13.4;
49686;PMS5003;36064;38.180;-122.272;2022-12-07T14:35:01;12.0;11.2;
49686;PMS5003;36064;38.180;-122.272;2022-12-07T14:40:00;9.0;8.2;
49686;PMS5003;36064;38.180;-122.272;2022-12-07T14:45:00;11.0;10.6;
49686;PMS5003;36064;38.180;-122.272;2022-12-07T14:50:00;9.6;8.8;
49686;PMS5003;36064;38.180;-122.272;2022-12-07T14:55:00;8.6;7.6;
49686;PMS5003;36064;38.180;-122.272;2022-12-07T15:00:01;6.4;5.0;
49686;PMS5003;36064;38.180;-122.272;2022-12-07T15:05:00;5.6;5.2;
49686;PMS5003;36064;38.180;-122.272;2022-12-07T15:10:00;4.6;5.2;
49686;PMS5003;36064;38.180;-122.272;2022-12-07T15:15:00;5.2;5.2;
49686;PMS5003;36064;38.180;-122.272;2022-12-07T15:20:00;4.6;4.0;
49686;PMS5003;36064;38.180;-122.272;2022-12-07T15:25:00;5.6;4.6;
49686;PMS5003;36064;38.180;-122.272;2022-12-07T15:30:00;7.0;5.6;
49686;PMS5003;36064;38.180;-122.272;2022-12-07T15:35:00;6.4;5.8;
49686;PMS5003;36064;38.180;-122.272;2022-12-07T15:40:00;7.4;5.8;
49686;PMS5003;36064;38.180;-122.272;2022-12-07T15:45:00;5.6;5.2;
49686;PMS5003;36064;38.180;-122.272;2022-12-07T15:50:00;5.2;5.2;
49686;PMS5003;36064;38.180;-122.272;2022-12-07T15:55:00;6.2;5.8;
49686;PMS5003;36064;38.180;-122.272;2022-12-07T16:00:01;4.6;4.6;
49686;PMS5003;36064;38.180;-122.272;2022-12-07T16:05:00;4.8;4.8;
49686;PMS5003;36064;38.180;-122.272;2022-12-07T16:10:00;6.2;5.4;
49686;PMS5003;36064;38.180;-122.272;2022-12-07T16:15:00;6.0;5.6;
49686;PMS5003;36064;38.180;-122.272;2022-12-07T16:20:00;5.4;5.4;
49686;PMS5003;36064;38.180;-122.272;2022-12-07T16:25:00;5.6;5.2;
49686;PMS5003;36064;38.180;-122.272;2022-12-07T16:30:00;7.2;7.2;
49686;PMS5003;36064;38.180;-122.272;2022-12-07T16:35:00;6.4;6.4;
49686;PMS5003;36064;38.180;-122.272;2022-12-07T16:40:00;7.8;7.4;
49686;PMS5003;36064;38.180;-122.272;2022-12-07T16:45:01;8.2;7.6;
49686;PMS5003;36064;38.180;-122.272;2022-12-07T16:50:00;12.2;10.4;
49686;PMS5003;36064;38.180;-122.272;2022-12-07T16:55:00;14.6;14.0;
49686;PMS5003;36064;38.180;-122.272;2022-12-07T17:00:01;11.0;10.4;
49686;PMS5003;36064;38.180;-122.272;2022-12-07T17:05:00;10.2;9.4;
49686;PMS5003;36064;38.180;-122.272;2022-12-07T17:10:00;5.4;5.4;
49686;PMS5003;36064;38.180;-122.272;2022-12-07T17:15:00;4.2;4.2;
49686;PMS5003;36064;38.180;-122.272;2022-12-07T17:20:00;5.0;4.2;
49686;PMS5003;36064;38.180;-122.272;2022-12-07T17:25:00;4.8;4.2;
49686;PMS5003;36064;38.180;-122.272;2022-12-07T17:30:00;4.6;4.4;
49686;PMS5003;36064;38.180;-122.272;2022-12-07T17:35:01;4.6;3.8;
49686;PMS5003;36064;38.180;-122.272;2022-12-07T17:40:00;4.8;3.6;
49686;PMS5003;36064;38.180;-122.272;2022-12-07T17:45:02;5.2;4.8;
49686;PMS5003;36064;38.180;-122.272;2022-12-07T17:50:01;4.0;4.0;
49686;PMS5003;36064;38.180;-122.272;2022-12-07T17:55:00;4.0;4.0;
49686;PMS5003;36064;38.180;-122.272;2022-12-07T18:00:02;3.8;3.8;
49686;PMS5003;36064;38.180;-122.272;2022-12-07T18:05:01;4.2;4.2;
49686;PMS5003;36064;38.180;-122.272;2022-12-07T18:10:00;4.6;4.6;
49686;PMS5003;36064;38.180;-122.272;2022-12-07T18:15:00;6.2;4.2;
49686;PMS5003;36064;38.180;-122.272;2022-12-07T18:20:01;4.2;4.2;
49686;PMS5003;36064;38.180;-122.272;2022-12-07T18:25:01;4.4;4.4;
49686;PMS5003;36064;38.180;-122.272;2022-12-07T18:30:00;4.2;3.8;
49686;PMS5003;36064;38.180;-122.272;2022-12-07T18:35:00;4.8;4.4;
49686;PMS5003;36064;38.180;-122.272;2022-12-07T18:40:00;4.8;4.6;
49686;PMS5003;36064;38.180;-122.272;2022-12-07T18:45:01;3.2;3.2;
49686;PMS5003;36064;38.180;-122.272;2022-12-07T18:50:00;6.6;6.6;
49686;PMS5003;36064;38.180;-122.272;2022-12-07T18:55:00;6.2;5.0;
49686;PMS5003;36064;38.180;-122.272;2022-12-07T19:00:01;6.8;7.0;
49686;PMS5003;36064;38.180;-122.272;2022-12-07T19:05:00;8.8;8.2;
49686;PMS5003;36064;38.180;-122.272;2022-12-07T19:10:00;10.2;9.0;
49686;PMS5003;36064;38.180;-122.272;2022-12-07T19:15:00;15.2;13.2;
49686;PMS5003;36064;38.180;-122.272;2022-12-07T19:20:01;12.8;11.2;
49686;PMS5003;36064;38.180;-122.272;2022-12-07T19:25:00;15.2;13.4;
49686;PMS5003;36064;38.180;-122.272;2022-12-07T19:30:00;10.8;10.4;
49686;PMS5003;36064;38.180;-122.272;2022-12-07T19:35:00;13.0;12.4;
49686;PMS5003;36064;38.180;-122.272;2022-12-07T19:40:00;19.4;17.6;
49686;PMS5003;36064;38.180;-122.272;2022-12-07T19:45:01;16.4;14.2;
49686;PMS5003;36064;38.180;-122.272;2022-12-07T19:50:00;19.0;18.4;
49686;PMS5003;36064;38.180;-122.272;2022-12-07T19:55:00;17.4;15.4;
49686;PMS5003;36064;38.180;-122.272;2022-12-07T20:00:00;19.6;18.8;
49686;PMS5003;36064;38.180;-122.272;2022-12-07T20:05:00;22.0;19.6;
49686;PMS5003;36064;38.180;-122.272;2022-12-07T20:10:00;20.2;19.4;
49686;PMS5003;36064;38.180;-122.272;2022-12-07T20:15:00;21.4;20.8;
49686;PMS5003;36064;38.180;-122.272;2022-12-07T20:20:00;28.8;27.0;
49686;PMS5003;36064;38.180;-122.272;2022-12-07T20:25:00;30.8;28.2;
49686;PMS5003;36064;38.180;-122.272;2022-12-07T20:30:00;34.2;31.2;
49686;PMS5003;36064;38.180;-122.272;2022-12-07T20:35:00;34.6;30.6;
49686;PMS5003;36064;38.180;-122.272;2022-12-07T20:40:00;40.2;34.2;
49686;PMS5003;36064;38.180;-122.272;2022-12-07T20:45:00;37.0;32.6;
49686;PMS5003;36064;38.180;-122.272;2022-12-07T20:50:00;38.8;33.8;
49686;PMS5003;36064;38.180;-122.272;2022-12-07T20:55:00;39.8;34.6;
49686;PMS5003;36064;38.180;-122.272;2022-12-07T21:00:01;37.6;32.2;
49686;PMS5003;36064;38.180;-122.272;2022-12-07T21:05:00;36.4;31.8;
49686;PMS5003;36064;38.180;-122.272;2022-12-07T21:10:01;39.6;33.8;
49686;PMS5003;36064;38.180;-122.272;2022-12-07T21:15:03;34.8;31.0;
49686;PMS5003;36064;38.180;-122.272;2022-12-07T21:20:00;42.2;35.6;
49686;PMS5003;36064;38.180;-122.272;2022-12-07T21:25:04;44.2;36.4;
49686;PMS5003;36064;38.180;-122.272;2022-12-07T21:30:00;43.0;33.2;
49686;PMS5003;36064;38.180;-122.272;2022-12-07T21:35:00;43.0;36.2;
49686;PMS5003;36064;38.180;-122.272;2022-12-07T21:40:00;40.8;34.2;
49686;PMS5003;36064;38.180;-122.272;2022-12-07T21:45:01;42.4;35.6;
49686;PMS5003;36064;38.180;-122.272;2022-12-07T21:50:00;40.0;34.2;
49686;PMS5003;36064;38.180;-122.272;2022-12-07T21:55:00;38.0;32.8;
49686;PMS5003;36064;38.180;-122.272;2022-12-07T22:00:00;39.6;32.6;
49686;PMS5003;36064;38.180;-122.272;2022-12-07T22:05:00;36.2;32.0;
49686;PMS5003;36064;38.180;-122.272;2022-12-07T22:10:00;36.4;32.0;
49686;PMS5003;36064;38.180;-122.272;2022-12-07T22:15:00;38.6;32.8;
49686;PMS5003;36064;38.180;-122.272;2022-12-07T22:20:00;36.4;32.2;
49686;PMS5003;36064;38.180;-122.272;2022-12-07T22:25:00;42.4;35.8;
49686;PMS5003;36064;38.180;-122.272;2022-12-07T22:30:00;36.2;32.8;
49686;PMS5003;36064;38.180;-122.272;2022-12-07T22:35:00;32.0;32.0;
49686;PMS5003;36064;38.180;-122.272;2022-12-07T22:40:00;38.4;34.0;
49686;PMS5003;36064;38.180;-122.272;2022-12-07T22:45:00;37.2;32.4;
49686;PMS5003;36064;38.180;-122.272;2022-12-07T22:50:00;38.4;34.2;
49686;PMS5003;36064;38.180;-122.272;2022-12-07T22:55:00;35.8;32.6;
49686;PMS5003;36064;38.180;-122.272;2022-12-07T23:00:00;41.2;33.8;
49686;PMS5003;36064;38.180;-122.272;2022-12-07T23:05:00;34.8;33.8;
49686;PMS5003;36064;38.180;-122.272;2022-12-07T23:10:00;37.8;32.2;
49686;PMS5003;36064;38.180;-122.272;2022-12-07T23:15:00;33.0;30.8;
49686;PMS5003;36064;38.180;-122.272;2022-12-07T23:20:01;29.4;27.2;
49686;PMS5003;36064;38.180;-122.272;2022-12-07T23:25:00;29.0;28.4;
49686;PMS5003;36064;38.180;-122.272;2022-12-07T23:30:00;28.0;26.2;
49686;PMS5003;36064;38.180;-122.272;2022-12-07T23:35:00;30.8;28.4;
49686;PMS5003;36064;38.180;-122.272;2022-12-07T23:40:00;26.2;25.6;
49686;PMS5003;36064;38.180;-122.272;2022-12-07T23:45:00;25.8;23.4;
49686;PMS5003;36064;38.180;-122.272;2022-12-07T23:55:00;30.8;28.2;
